KDED

Deland Municipal-Sidney H Taylor Field Airport

Deland, Florida, USA
METAR KDED 230755Z AUTO 00000KT 1 1/4SM BR OVC014 16/16 A3035 RMK AO2
Observed Flight Rules
Feb-23 @ 07:55 UTC (34 minutes ago) Instrument Flight Rules
Wind Visibility Clouds Conditions
Calm 1 1/4 miles
  • Overcast at 1,400' AGL
  • Mist
Temperatures Readings
Current 16°C / 61°F
Dewpoint 16°C / 61°F
Humidity 100%
Altimeter 30.35" Hg
Pressure 1028 hPa
Elevation 24
METAR KDED 230755Z AUTO 00000KT 1 1/4SM BR OVC014 16/16 A3035 RMK AO2
Observed Flight Rules
Feb-23 @ 07:55 UTC
(34 minutes ago)
IFR
Wind Visibility
Calm 1 1/4 miles
Clouds
  • Overcast at 1,400' AGL
Conditions
  • Mist
Temperature Dewpoint
16°C / 61°F 16°C / 61°F
Humidity Altimeter Pressure
100% 30.35" Hg 1028 hPa